| time (UTC) | temp C | wind direction | speed KPH | gust KPH | rain 1hr cm | rain 24hr cm | rain mn cm | humidity % | barometer mb |
| 20260507080211 | 9 | 255 | 11.3 | 0.0 | 0.00 | 0.00 | 0.13 | 92 | 1012.9 |
| 20260507073212 | 8 | 232 | 8.0 | 0.0 | 0.00 | 0.00 | 0.13 | 92 | 1012.5 |
| 20260507070212 | 8 | 276 | 11.3 | 0.0 | 0.00 | 0.00 | 0.10 | 92 | 1012.3 |
| 20260507063211 | 8 | 225 | 8.0 | 0.0 | 0.00 | 0.00 | 0.10 | 92 | 1012.1 |
| 20260507060211 | 8 | 269 | 12.9 | 0.0 | 0.00 | 0.00 | 0.08 | 92 | 1011.9 |
| 20260507053211 | 7 | 244 | 11.3 | 0.0 | 0.00 | 0.00 | 0.05 | 92 | 1011.6 |
| 20260507050213 | 7 | 211 | 6.4 | 0.0 | 0.00 | 0.00 | 0.03 | 92 | 1011.3 |
| 20260507043211 | 7 | 243 | 4.8 | 0.0 | 0.00 | 0.00 | 0.00 | 92 | 1011.0 |
| 20260507040216 | 7 | 219 | 6.4 | 0.0 | 0.00 | 0.00 | 0.00 | 92 | 1010.7 |
| 20260507033211 | 7 | 222 | 4.8 | 0.0 | 0.00 | 0.00 | 0.00 | 92 | 1010.5 |
| 20260507030211 | 7 | 240 | 1.6 | 0.0 | 0.00 | 0.00 | 0.00 | 92 | 1010.3 |
| 20260507023211 | 7 | 240 | 4.8 | 0.0 | 0.00 | 0.00 | 0.00 | 92 | 1010.2 |
| 20260507020211 | 7 | 261 | 8.0 | 0.0 | 0.00 | 0.00 | 0.00 | 92 | 1010.0 |
| 20260507013212 | 7 | 22 | 1.6 | 0.0 | 0.00 | 0.00 | 0.00 | 92 | 1009.9 |
| 20260507010211 | 7 | 44 | 6.4 | 0.0 | 0.00 | 0.00 | 0.00 | 92 | 1009.6 |
| 20260507003209 | 7 | 207 | 4.8 | 0.0 | 0.00 | 0.00 | 0.00 | 92 | 1009.6 |
| 20260507000209 | 6 | 136 | 3.2 | 0.0 | 0.00 | 0.00 | 0.00 | 91 | 1009.6 |
| 20260506233209 | 7 | 119 | 3.2 | 0.0 | 0.00 | 0.00 | 0.00 | 91 | 1009.6 |
| 20260506230209 | 8 | 148 | 0.0 | 0.0 | 0.00 | 0.00 | 0.00 | 91 | 1009.6 |
| 20260506223209 | 8 | 165 | 4.8 | 0.0 | 0.00 | 0.00 | 0.00 | 91 | 1009.4 |
| 20260506220209 | 8 | 186 | 4.8 | 0.0 | 0.00 | 0.00 | 0.00 | 91 | 1009.1 |
| 20260506213209 | 8 | 288 | 11.3 | 0.0 | 0.00 | 0.00 | 0.48 | 91 | 1008.9 |
| 20260506210210 | 8 | 252 | 8.0 | 0.0 | 0.00 | 0.00 | 0.48 | 91 | 1008.7 |
| 20260506203210 | 9 | 242 | 9.7 | 0.0 | 0.00 | 0.00 | 0.48 | 91 | 1008.8 |
| 20260506200210 | 9 | 240 | 12.9 | 0.0 | 0.00 | 0.00 | 0.48 | 91 | 1008.5 |
| 20260506193215 | 10 | 248 | 12.9 | 0.0 | 0.00 | 0.00 | 0.48 | 91 | 1008.1 |
| 20260506190211 | 10 | 250 | 9.7 | 0.0 | 0.00 | 0.00 | 0.48 | 91 | 1007.7 |
| 20260506183209 | 10 | 235 | 19.3 | 0.0 | 0.00 | 0.00 | 0.48 | 91 | 1007.5 |
| 20260506180216 | 10 | 211 | 12.9 | 0.0 | 0.00 | 0.00 | 0.48 | 90 | 1007.1 |
| 20260506173210 | 11 | 250 | 16.1 | 0.0 | 0.00 | 0.00 | 0.48 | 90 | 1006.5 |
| 20260506170215 | 11 | 292 | 6.4 | 0.0 | 0.00 | 0.00 | 0.48 | 90 | 1006.0 |
| 20260506163210 | 11 | 234 | 11.3 | 0.0 | 0.00 | 0.00 | 0.38 | 89 | 1006.2 |
| 20260506160210 | 12 | 270 | 3.2 | 0.0 | 0.00 | 0.00 | 0.18 | 85 | 1006.1 |
| 20260506153210 | 13 | 256 | 16.1 | 0.0 | 0.00 | 0.00 | 0.08 | 79 | 1005.5 |
| 20260506150210 | 17 | 261 | 19.3 | 0.0 | 0.00 | 0.00 | 0.00 | 62 | 1004.0 |
| 20260506143210 | 17 | 240 | 6.4 | 0.0 | 0.00 | 0.00 | 0.00 | 64 | 1004.1 |
| 20260506140210 | 17 | 206 | 1.6 | 0.0 | 0.00 | 0.00 | 0.00 | 64 | 1004.0 |
| 20260506133211 | 17 | 219 | 8.0 | 0.0 | 0.00 | 0.00 | 0.00 | 64 | 1004.3 |
| 20260506130211 | 17 | 17 | 1.6 | 0.0 | 0.00 | 0.00 | 0.00 | 60 | 1004.3 |
| 20260506123210 | 17 | 197 | 3.2 | 0.0 | 0.00 | 0.00 | 0.00 | 61 | 1004.2 |
| 20260506120210 | 16 | 271 | 3.2 | 0.0 | 0.00 | 0.00 | 0.00 | 63 | 1004.3 |
| 20260506113217 | 16 | 132 | 0.0 | 0.0 | 0.00 | 0.00 | 0.00 | 67 | 1004.2 |
| 20260506110210 | 15 | 30 | 3.2 | 0.0 | 0.00 | 0.00 | 0.00 | 73 | 1004.5 |
| 20260506100213 | 15 | 178 | 4.8 | 0.0 | 0.00 | 0.00 | 0.00 | 76 | 1005.2 |
| 20260506093211 | 15 | 227 | 3.2 | 0.0 | 0.00 | 0.00 | 0.00 | 78 | 1005.2 |
| 20260506090211 | 13 | 158 | 1.6 | 0.0 | 0.00 | 0.00 | 0.00 | 82 | 1005.0 |
| 20260506083211 | 13 | 206 | 1.6 | 0.0 | 0.00 | 0.00 | 0.00 | 85 | 1005.1 |